createdAt,value
2018-10-19T00:01:18.653Z,14.99
2018-10-19T00:03:47.149Z,15.03
2018-10-19T00:06:15.697Z,15.01
2018-10-19T00:08:44.319Z,15.00
2018-10-19T00:11:13.009Z,15.00
2018-10-19T00:13:41.552Z,15.00
2018-10-19T00:16:10.026Z,14.99
2018-10-19T00:18:39.582Z,15.00
2018-10-19T00:21:08.181Z,15.01
2018-10-19T00:23:36.990Z,15.02
2018-10-19T00:26:06.013Z,15.05
2018-10-19T00:28:34.691Z,15.05
2018-10-19T00:31:03.243Z,15.06
2018-10-19T00:33:31.941Z,15.00
2018-10-19T00:36:00.501Z,14.98
2018-10-19T00:38:29.181Z,14.98
2018-10-19T00:40:57.673Z,14.99
2018-10-19T00:43:26.611Z,14.97
2018-10-19T00:45:55.226Z,14.90
2018-10-19T00:48:23.734Z,14.90
2018-10-19T00:50:53.029Z,14.91
2018-10-19T00:53:21.739Z,14.92
2018-10-19T00:55:50.276Z,14.92
2018-10-19T00:58:19.337Z,14.86
2018-10-19T01:00:47.977Z,14.89
2018-10-19T01:03:16.560Z,14.85
2018-10-19T01:05:45.024Z,14.84
2018-10-19T01:08:13.907Z,14.83
2018-10-19T01:10:42.457Z,14.80
2018-10-19T01:13:11.437Z,14.76
2018-10-19T01:15:40.074Z,14.78
2018-10-19T01:18:16.074Z,14.79
2018-10-19T01:20:44.785Z,14.78
2018-10-19T01:23:13.335Z,14.75
2018-10-19T01:25:42.821Z,14.75
2018-10-19T01:28:15.527Z,14.73
2018-10-19T01:30:44.146Z,14.67
2018-10-19T01:33:13.374Z,14.65
2018-10-19T01:35:42.034Z,14.67
2018-10-19T01:38:10.513Z,14.71
2018-10-19T01:40:39.064Z,14.69
2018-10-19T01:43:07.560Z,14.68
2018-10-19T01:45:36.253Z,14.69
2018-10-19T01:48:04.778Z,14.70
2018-10-19T01:50:33.941Z,14.72
2018-10-19T01:53:02.570Z,14.73
2018-10-19T01:55:30.980Z,14.77
2018-10-19T01:57:59.605Z,14.80
2018-10-19T02:00:28.669Z,14.81
2018-10-19T02:02:57.243Z,14.80
2018-10-19T02:05:25.692Z,14.78
2018-10-19T02:07:54.290Z,14.72
2018-10-19T02:10:22.866Z,14.70
2018-10-19T02:12:51.472Z,14.69
2018-10-19T02:15:20.651Z,14.69
2018-10-19T02:17:49.152Z,14.70
2018-10-19T02:20:17.807Z,14.68
2018-10-19T02:22:46.468Z,14.68
2018-10-19T02:25:15.625Z,14.70
2018-10-19T02:27:44.420Z,14.72
2018-10-19T02:30:12.911Z,14.74
2018-10-19T02:32:41.509Z,14.70
2018-10-19T02:35:10.196Z,14.70
2018-10-19T02:37:38.680Z,14.66
2018-10-19T02:40:09.092Z,14.66
2018-10-19T02:42:38.899Z,14.68
2018-10-19T02:45:08.465Z,14.65
2018-10-19T02:47:37.146Z,14.61
2018-10-19T02:50:06.698Z,14.65
2018-10-19T02:52:35.256Z,14.58
2018-10-19T02:55:04.280Z,14.55
2018-10-19T02:57:33.516Z,14.48
2018-10-19T03:00:02.060Z,14.49
2018-10-19T03:02:31.000Z,14.52
2018-10-19T03:04:59.528Z,14.52
2018-10-19T03:07:28.049Z,14.52
2018-10-19T03:09:56.701Z,14.54
2018-10-19T03:12:25.365Z,14.56
2018-10-19T03:14:54.629Z,14.57
2018-10-19T03:17:23.316Z,14.58
2018-10-19T03:19:52.033Z,14.59
2018-10-19T03:22:20.604Z,14.56
2018-10-19T03:24:49.489Z,14.54
2018-10-19T03:27:18.559Z,14.53
2018-10-19T03:29:47.050Z,14.48
2018-10-19T03:32:15.795Z,14.49
2018-10-19T03:34:44.505Z,14.52
2018-10-19T03:37:14.162Z,14.53
2018-10-19T03:39:42.600Z,14.51
2018-10-19T03:42:11.227Z,14.49
2018-10-19T03:44:39.685Z,14.46
2018-10-19T03:47:08.351Z,14.44
2018-10-19T03:49:36.862Z,14.43
2018-10-19T03:52:05.722Z,14.39
2018-10-19T03:54:34.233Z,14.38
2018-10-19T03:57:02.897Z,14.38
2018-10-19T03:59:32.017Z,14.39
2018-10-19T04:02:00.985Z,14.39
2018-10-19T04:04:29.487Z,14.38
2018-10-19T04:06:58.775Z,14.36
2018-10-19T04:09:27.497Z,14.34
2018-10-19T04:11:55.982Z,14.35
2018-10-19T04:14:24.735Z,14.38
2018-10-19T04:16:53.226Z,14.39
2018-10-19T04:19:21.773Z,14.39
2018-10-19T04:21:50.264Z,14.35
2018-10-19T04:24:18.977Z,14.33
2018-10-19T04:26:47.466Z,14.31
2018-10-19T04:29:16.269Z,14.27
2018-10-19T04:31:45.547Z,14.26
2018-10-19T04:34:14.191Z,14.27
2018-10-19T04:36:42.724Z,14.27
2018-10-19T04:39:11.493Z,14.28
2018-10-19T04:41:39.957Z,14.27
2018-10-19T04:44:09.202Z,14.25
2018-10-19T04:46:38.431Z,14.24
2018-10-19T04:49:06.946Z,14.21
2018-10-19T04:51:36.348Z,14.19
2018-10-19T04:54:05.246Z,14.17
2018-10-19T04:56:33.930Z,14.09
2018-10-19T04:59:02.602Z,14.07
2018-10-19T05:01:31.055Z,14.12
2018-10-19T05:03:59.830Z,14.12
2018-10-19T05:06:28.674Z,14.12
2018-10-19T05:08:58.846Z,14.13
2018-10-19T05:11:27.474Z,14.10
2018-10-19T05:13:56.823Z,14.06
2018-10-19T05:16:25.291Z,14.04
2018-10-19T05:18:53.950Z,14.00
2018-10-19T05:21:22.515Z,14.00
2018-10-19T05:23:51.011Z,13.98
2018-10-19T05:26:19.831Z,13.97
2018-10-19T05:28:48.428Z,13.96
2018-10-19T05:31:17.021Z,13.96
2018-10-19T05:33:45.626Z,13.96
2018-10-19T05:36:14.382Z,13.96
2018-10-19T05:38:43.021Z,13.97
2018-10-19T05:41:11.812Z,13.94
2018-10-19T05:43:41.486Z,13.94
2018-10-19T05:46:11.604Z,13.94
2018-10-19T05:48:40.360Z,13.98
2018-10-19T05:51:09.656Z,14.01
2018-10-19T05:53:38.442Z,13.98
2018-10-19T05:56:07.841Z,13.97
2018-10-19T05:58:37.355Z,13.97
2018-10-19T06:01:06.248Z,13.97
2018-10-19T06:03:35.070Z,13.96
2018-10-19T06:06:03.746Z,13.96
2018-10-19T06:08:32.999Z,13.91
2018-10-19T06:11:01.818Z,13.88
2018-10-19T06:13:30.711Z,13.87
2018-10-19T06:15:59.344Z,13.90
2018-10-19T06:18:28.146Z,13.91
2018-10-19T06:20:59.956Z,13.91
2018-10-19T06:23:28.634Z,13.92
2018-10-19T06:25:57.827Z,13.89
2018-10-19T06:28:26.425Z,13.91
2018-10-19T06:30:54.903Z,13.92
2018-10-19T06:33:23.425Z,13.90
2018-10-19T06:35:52.064Z,13.91
2018-10-19T06:38:20.691Z,13.93
2018-10-19T06:40:49.221Z,13.92
2018-10-19T06:43:17.822Z,13.92
2018-10-19T06:45:47.650Z,13.95
2018-10-19T06:48:16.446Z,13.96
2018-10-19T06:50:45.879Z,13.95
2018-10-19T06:53:14.560Z,13.95
2018-10-19T06:55:43.221Z,13.96
2018-10-19T06:58:12.526Z,13.96
2018-10-19T07:00:41.148Z,13.97
2018-10-19T07:03:10.088Z,14.00
2018-10-19T07:05:38.971Z,14.00
2018-10-19T07:08:07.669Z,14.00
2018-10-19T07:10:36.310Z,14.02
2018-10-19T07:13:04.832Z,14.01
2018-10-19T07:15:33.455Z,13.97
2018-10-19T07:18:02.846Z,13.95
2018-10-19T07:20:31.656Z,13.91
2018-10-19T07:23:00.396Z,13.87
2018-10-19T07:25:29.026Z,13.80
2018-10-19T07:27:57.671Z,13.72
2018-10-19T07:30:26.186Z,13.68
2018-10-19T07:32:54.982Z,13.64
2018-10-19T07:35:23.715Z,13.63
2018-10-19T07:37:52.278Z,13.62
2018-10-19T07:40:20.973Z,13.60
2018-10-19T07:42:49.759Z,13.60
2018-10-19T07:45:18.578Z,13.59
2018-10-19T07:47:47.960Z,13.63
2018-10-19T07:50:16.528Z,13.66
2018-10-19T07:52:45.348Z,13.67
2018-10-19T07:55:14.044Z,13.69
2018-10-19T07:57:42.573Z,13.72
2018-10-19T08:00:11.785Z,13.74
2018-10-19T08:02:40.272Z,13.73
2018-10-19T08:05:09.445Z,13.71
2018-10-19T08:07:44.531Z,13.72
2018-10-19T08:10:13.219Z,13.73
2018-10-19T08:12:41.826Z,13.76
2018-10-19T08:15:10.814Z,13.78
2018-10-19T08:17:39.517Z,13.84
2018-10-19T08:20:08.543Z,13.91
2018-10-19T08:22:37.383Z,13.91
2018-10-19T08:25:07.176Z,13.97
2018-10-19T08:27:36.417Z,14.04
2018-10-19T08:30:05.111Z,14.11
2018-10-19T08:32:33.767Z,14.14
2018-10-19T08:35:02.479Z,14.20
2018-10-19T08:37:32.957Z,14.26
2018-10-19T08:40:01.583Z,14.29
2018-10-19T08:42:30.108Z,14.32
2018-10-19T08:44:59.521Z,14.34
2018-10-19T08:47:28.251Z,14.39
2018-10-19T08:49:56.865Z,14.43
2018-10-19T08:52:26.242Z,14.48
2018-10-19T08:54:54.961Z,14.51
2018-10-19T08:57:23.922Z,14.50
2018-10-19T08:59:53.306Z,14.48
2018-10-19T09:02:22.220Z,14.47
2018-10-19T09:04:50.832Z,14.47
2018-10-19T09:07:19.780Z,14.47
2018-10-19T09:09:48.541Z,14.47
2018-10-19T09:12:17.136Z,14.54
2018-10-19T09:14:53.668Z,14.60
2018-10-19T09:17:22.759Z,14.71
2018-10-19T09:19:52.321Z,14.82
2018-10-19T09:22:21.761Z,14.85
2018-10-19T09:24:51.570Z,14.94
2018-10-19T09:27:21.536Z,15.06
2018-10-19T09:29:50.148Z,15.19
2018-10-19T09:32:18.851Z,15.26
2018-10-19T09:34:47.809Z,15.41
2018-10-19T09:37:16.392Z,15.62
2018-10-19T09:39:45.781Z,15.84
2018-10-19T09:42:14.454Z,16.05
2018-10-19T09:44:43.153Z,16.19
2018-10-19T09:47:11.732Z,16.31
2018-10-19T09:49:40.363Z,16.42
2018-10-19T09:52:09.613Z,16.52
2018-10-19T09:54:38.408Z,16.62
2018-10-19T09:57:06.964Z,16.75
2018-10-19T09:59:35.500Z,16.83
2018-10-19T10:02:04.194Z,16.86
2018-10-19T10:04:32.894Z,16.94
2018-10-19T10:07:01.670Z,17.03
2018-10-19T10:09:30.601Z,17.17
2018-10-19T10:11:59.148Z,17.33
2018-10-19T10:14:27.819Z,17.46
2018-10-19T10:16:56.519Z,17.58
2018-10-19T10:19:25.146Z,17.59
2018-10-19T10:21:54.277Z,17.45
2018-10-19T10:24:22.917Z,17.51
2018-10-19T10:26:51.616Z,17.55
2018-10-19T10:29:20.921Z,17.61
2018-10-19T10:31:49.480Z,17.66
2018-10-19T10:34:18.336Z,17.77
2018-10-19T10:36:46.787Z,17.80
2018-10-19T10:39:16.245Z,17.93
2018-10-19T10:41:44.954Z,18.12
2018-10-19T10:44:13.501Z,18.33
2018-10-19T10:46:42.340Z,18.53
2018-10-19T10:49:10.926Z,18.71
2018-10-19T10:51:39.697Z,18.84
2018-10-19T10:54:08.584Z,19.02
2018-10-19T10:56:37.302Z,19.22
2018-10-19T10:59:06.219Z,19.41
2018-10-19T11:01:35.013Z,19.53
2018-10-19T11:04:03.949Z,19.83
2018-10-19T11:06:32.553Z,20.10
2018-10-19T11:09:01.366Z,20.11
2018-10-19T11:11:35.943Z,20.13
2018-10-19T11:14:05.005Z,20.22
2018-10-19T11:16:33.617Z,20.09
2018-10-19T11:19:03.133Z,19.81
2018-10-19T11:21:32.737Z,19.61
2018-10-19T11:24:01.557Z,19.70
2018-10-19T11:26:30.421Z,19.87
2018-10-19T11:28:59.961Z,20.24
2018-10-19T11:31:29.127Z,20.51
2018-10-19T11:33:57.887Z,20.89
2018-10-19T11:36:26.692Z,21.23
2018-10-19T11:38:55.201Z,21.64
2018-10-19T11:41:23.904Z,21.98
2018-10-19T11:43:52.493Z,22.29
2018-10-19T11:46:21.228Z,22.40
2018-10-19T11:48:50.359Z,22.53
2018-10-19T11:51:19.037Z,22.72
2018-10-19T11:53:48.006Z,22.95
2018-10-19T11:56:16.645Z,23.23
2018-10-19T11:58:45.289Z,23.44
2018-10-19T12:01:14.033Z,23.60
2018-10-19T12:03:42.767Z,23.67
2018-10-19T12:06:11.275Z,23.22
2018-10-19T12:08:40.307Z,23.23
2018-10-19T12:11:09.084Z,23.43
2018-10-19T12:13:37.868Z,22.99
2018-10-19T12:16:07.320Z,23.06
2018-10-19T12:18:36.015Z,22.86
2018-10-19T12:21:05.089Z,22.42
2018-10-19T12:23:33.879Z,22.33
2018-10-19T12:26:02.545Z,22.71
2018-10-19T12:28:31.089Z,23.00
2018-10-19T12:30:59.935Z,23.07
2018-10-19T12:33:28.561Z,23.33
2018-10-19T12:35:57.494Z,23.18
2018-10-19T12:38:26.861Z,22.77
2018-10-19T12:40:55.718Z,22.95
2018-10-19T12:43:24.198Z,22.83
2018-10-19T12:46:34.877Z,22.36
2018-10-19T12:49:03.424Z,21.93
2018-10-19T12:51:32.212Z,21.17
2018-10-19T12:54:00.933Z,20.75
2018-10-19T12:56:29.802Z,20.38
2018-10-19T12:58:58.560Z,19.96
2018-10-19T13:01:28.395Z,19.85
2018-10-19T13:03:57.791Z,19.71
2018-10-19T13:06:26.463Z,19.80
2018-10-19T13:08:55.462Z,19.97
2018-10-19T13:11:24.367Z,20.07
2018-10-19T13:13:54.192Z,20.10
2018-10-19T13:16:23.156Z,20.01
2018-10-19T13:18:52.093Z,19.82
2018-10-19T13:21:20.988Z,19.80
2018-10-19T13:23:50.378Z,19.83
2018-10-19T13:26:19.096Z,19.86
2018-10-19T13:28:47.989Z,19.93
2018-10-19T13:31:17.039Z,19.94
2018-10-19T13:33:45.870Z,20.04
2018-10-19T13:36:14.685Z,20.12
2018-10-19T13:38:43.216Z,19.92
2018-10-19T13:41:12.103Z,19.98
2018-10-19T13:43:41.709Z,20.10
2018-10-19T13:46:10.484Z,19.99
2018-10-19T13:48:39.643Z,20.03
2018-10-19T13:51:08.343Z,20.08
2018-10-19T13:53:37.059Z,20.00
2018-10-19T13:56:05.640Z,19.96
2018-10-19T13:58:34.346Z,19.77
2018-10-19T14:01:02.895Z,19.62
2018-10-19T14:03:31.728Z,19.60
2018-10-19T14:06:00.968Z,19.42
2018-10-19T14:08:30.211Z,19.17
2018-10-19T14:10:58.849Z,19.03
2018-10-19T14:13:27.846Z,18.85
2018-10-19T14:15:56.524Z,18.81
2018-10-19T14:18:25.537Z,18.84
2018-10-19T14:20:54.381Z,18.82
2018-10-19T14:23:23.690Z,18.83
2018-10-19T14:25:52.885Z,18.73
2018-10-19T14:28:21.702Z,18.50
2018-10-19T14:30:51.096Z,18.31
2018-10-19T14:33:19.924Z,18.21
2018-10-19T14:35:48.553Z,18.20
2018-10-19T14:38:17.886Z,18.28
2018-10-19T14:40:46.889Z,18.41
2018-10-19T14:43:16.419Z,18.34
2018-10-19T14:45:45.908Z,18.39
2018-10-19T14:48:17.929Z,18.31
2018-10-19T14:50:46.692Z,18.16
2018-10-19T14:53:15.755Z,18.09
2018-10-19T14:55:44.645Z,18.19
2018-10-19T14:58:14.204Z,18.20
2018-10-19T15:00:48.251Z,18.16
2018-10-19T15:03:17.014Z,18.19
2018-10-19T15:05:45.834Z,18.16
2018-10-19T15:08:15.089Z,18.02
2018-10-19T15:10:44.287Z,18.03
2018-10-19T15:13:12.589Z,18.05
2018-10-19T15:15:41.281Z,18.00
2018-10-19T15:18:10.675Z,18.00
2018-10-19T15:20:39.573Z,17.85
2018-10-19T15:23:08.361Z,17.73
2018-10-19T15:25:37.056Z,17.80
2018-10-19T15:28:05.595Z,17.89
2018-10-19T15:30:34.318Z,17.91
2018-10-19T15:33:02.928Z,17.89
2018-10-19T15:35:31.432Z,17.81
2018-10-19T15:38:00.139Z,17.83
2018-10-19T15:40:28.956Z,17.81
2018-10-19T15:42:57.777Z,17.75
2018-10-19T15:45:26.678Z,17.65
2018-10-19T15:47:55.364Z,17.59
2018-10-19T15:50:24.395Z,17.60
2018-10-19T15:52:53.630Z,17.56
2018-10-19T15:55:22.149Z,17.50
2018-10-19T15:57:50.889Z,17.45
2018-10-19T16:00:19.887Z,17.37
2018-10-19T16:02:48.955Z,17.41
2018-10-19T16:05:17.689Z,17.39
2018-10-19T16:07:46.396Z,17.43
2018-10-19T16:10:14.997Z,17.48
2018-10-19T16:12:43.790Z,17.50
2018-10-19T16:15:12.511Z,17.48
2018-10-19T16:17:41.163Z,17.45
2018-10-19T16:20:10.933Z,17.41
2018-10-19T16:22:39.710Z,17.27
2018-10-19T16:25:08.804Z,17.23
2018-10-19T16:27:39.131Z,17.22
2018-10-19T16:30:09.142Z,17.15
2018-10-19T16:32:39.322Z,17.04
2018-10-19T16:35:08.389Z,17.06
2018-10-19T16:37:37.756Z,17.07
2018-10-19T16:40:07.571Z,17.09
2018-10-19T16:42:36.373Z,17.05
2018-10-19T16:45:05.943Z,17.02
2018-10-19T16:47:35.715Z,16.88
2018-10-19T16:50:04.563Z,16.78
2018-10-19T16:52:33.288Z,16.80
2018-10-19T16:55:01.796Z,16.82
2018-10-19T16:57:30.597Z,16.84
2018-10-19T16:59:59.304Z,16.86
2018-10-19T17:02:28.021Z,16.85
2018-10-19T17:04:57.076Z,16.86
2018-10-19T17:07:25.512Z,16.84
2018-10-19T17:09:54.147Z,16.80
2018-10-19T17:12:23.205Z,16.82
2018-10-19T17:14:51.690Z,16.85
2018-10-19T17:17:20.402Z,16.85
2018-10-19T17:19:49.145Z,16.83
2018-10-19T17:42:25.922Z,16.29
2018-10-19T17:44:55.165Z,16.22
2018-10-19T17:47:24.074Z,16.15
2018-10-19T17:49:53.313Z,16.15
2018-10-19T17:52:21.818Z,16.15
2018-10-19T17:54:50.621Z,16.11
2018-10-19T17:57:19.263Z,16.10
2018-10-19T17:59:48.036Z,16.03
2018-10-19T18:02:16.929Z,15.96
2018-10-19T18:04:46.273Z,15.95
2018-10-19T18:07:15.096Z,15.99
2018-10-19T18:09:48.073Z,16.00
2018-10-19T18:12:16.666Z,16.01
2018-10-19T18:14:48.423Z,15.99
2018-10-19T18:17:17.174Z,15.98
2018-10-19T18:19:45.905Z,15.94
2018-10-19T18:22:15.047Z,15.91
2018-10-19T18:24:43.284Z,15.87
2018-10-19T18:27:11.980Z,15.80
2018-10-19T18:29:40.477Z,15.61
2018-10-19T18:32:09.423Z,15.46
2018-10-19T18:34:38.068Z,15.47
2018-10-19T18:37:07.323Z,15.48
2018-10-19T18:39:36.019Z,15.47
2018-10-19T18:42:04.671Z,15.44
2018-10-19T18:44:33.060Z,15.42
2018-10-19T18:47:01.848Z,15.39
2018-10-19T18:49:30.366Z,15.37
2018-10-19T18:51:59.012Z,15.32
2018-10-19T18:54:27.689Z,15.29
2018-10-19T18:56:56.302Z,15.22
2018-10-19T18:59:24.841Z,15.18
2018-10-19T19:01:53.591Z,15.12
2018-10-19T19:04:22.810Z,15.02
2018-10-19T19:06:52.017Z,14.95
2018-10-19T19:09:20.683Z,14.92
2018-10-19T19:11:49.650Z,14.95
2018-10-19T19:14:18.284Z,14.96
2018-10-19T19:16:46.888Z,14.90
2018-10-19T19:19:15.461Z,14.90
2018-10-19T19:21:44.720Z,14.86
2018-10-19T19:25:22.369Z,14.74
2018-10-19T19:27:51.073Z,14.69
2018-10-19T19:30:19.781Z,14.65
2018-10-19T19:32:54.154Z,14.61
2018-10-19T19:35:22.952Z,14.62
2018-10-19T19:37:51.902Z,14.60
2018-10-19T19:40:20.625Z,14.54
2018-10-19T19:42:51.412Z,14.56
2018-10-19T19:45:20.094Z,14.49
2018-10-19T19:47:53.841Z,14.48
2018-10-19T19:50:23.227Z,14.48
2018-10-19T19:52:51.982Z,14.47
2018-10-19T19:55:20.594Z,14.43
2018-10-19T19:57:49.270Z,14.38
2018-10-19T20:00:17.933Z,14.37
2018-10-19T20:02:46.432Z,14.39
2018-10-19T20:05:15.505Z,14.39
2018-10-19T20:07:44.280Z,14.40
2018-10-19T20:10:12.772Z,14.39
2018-10-19T20:12:41.351Z,14.38
2018-10-19T20:15:10.648Z,14.37
2018-10-19T20:17:39.455Z,14.28
2018-10-19T20:20:09.853Z,14.19
2018-10-19T20:22:39.001Z,14.17
2018-10-19T20:25:09.729Z,14.19
2018-10-19T20:27:39.142Z,14.10
2018-10-19T20:30:10.161Z,14.03
2018-10-19T20:32:39.300Z,13.91
2018-10-19T20:35:07.844Z,13.90
2018-10-19T20:37:36.566Z,13.73
2018-10-19T20:40:05.417Z,13.70
2018-10-19T20:42:34.257Z,13.74
2018-10-19T20:45:02.879Z,13.78
2018-10-19T20:47:31.516Z,13.79
2018-10-19T20:50:00.249Z,13.81
2018-10-19T20:52:29.686Z,13.73
2018-10-19T20:54:58.329Z,13.60
2018-10-19T20:57:26.841Z,13.47
2018-10-19T20:59:55.360Z,13.35
2018-10-19T21:02:24.109Z,13.31
2018-10-19T21:04:52.562Z,13.25
2018-10-19T21:07:21.140Z,13.21
2018-10-19T21:09:49.609Z,13.26
2018-10-19T21:12:18.266Z,13.32
2018-10-19T21:14:46.849Z,13.31
2018-10-19T21:17:16.033Z,13.15
2018-10-19T21:19:44.848Z,13.16
2018-10-19T21:22:13.401Z,13.13
2018-10-19T21:24:41.969Z,13.08
2018-10-19T21:27:10.744Z,13.05
2018-10-19T21:29:39.206Z,13.02
2018-10-19T21:32:08.102Z,12.94
2018-10-19T21:34:37.239Z,12.90
2018-10-19T21:37:05.861Z,12.89
2018-10-19T21:39:34.381Z,12.78
2018-10-19T21:42:02.892Z,12.72
2018-10-19T21:44:31.464Z,12.74
2018-10-19T21:47:00.336Z,12.74
2018-10-19T21:49:29.012Z,12.71
2018-10-19T21:51:58.103Z,12.70
2018-10-19T21:54:26.718Z,12.62
2018-10-19T21:56:55.271Z,12.54
2018-10-19T21:59:23.773Z,12.45
2018-10-19T22:01:52.309Z,12.42
2018-10-19T22:04:20.762Z,12.37
2018-10-19T22:06:49.339Z,12.36
2018-10-19T22:09:17.896Z,12.35
2018-10-19T22:11:47.124Z,12.33
2018-10-19T22:14:15.912Z,12.29
2018-10-19T22:16:44.678Z,12.26
2018-10-19T22:19:13.281Z,12.18
2018-10-19T22:21:41.949Z,12.13
2018-10-19T22:24:11.125Z,12.19
2018-10-19T22:26:40.296Z,12.24
2018-10-19T22:29:09.127Z,12.27
2018-10-19T22:31:37.692Z,12.25
2018-10-19T22:34:06.333Z,12.23
2018-10-19T22:36:36.107Z,12.26
2018-10-19T22:39:05.527Z,12.28
2018-10-19T22:41:34.062Z,12.31
2018-10-19T22:44:03.801Z,12.31
2018-10-19T22:46:32.418Z,12.27
2018-10-19T22:49:01.291Z,12.26
2018-10-19T22:51:29.926Z,12.24
2018-10-19T22:53:58.448Z,12.19
2018-10-19T22:56:26.903Z,12.01
2018-10-19T22:58:55.548Z,11.81
2018-10-19T23:01:24.708Z,11.80
2018-10-19T23:03:54.055Z,11.78
2018-10-19T23:06:22.644Z,11.94
2018-10-19T23:08:51.328Z,11.92
2018-10-19T23:11:19.835Z,11.86
2018-10-19T23:13:48.935Z,11.83
2018-10-19T23:16:17.604Z,11.87
2018-10-19T23:18:46.334Z,11.82
2018-10-19T23:21:14.931Z,11.80
2018-10-19T23:23:43.448Z,11.82
2018-10-19T23:26:11.937Z,11.83
2018-10-19T23:28:40.712Z,11.83
2018-10-19T23:31:09.491Z,11.84
2018-10-19T23:33:38.385Z,11.86
2018-10-19T23:36:06.993Z,11.87
2018-10-19T23:38:35.961Z,11.87
2018-10-19T23:41:04.477Z,11.87
2018-10-19T23:43:33.782Z,11.83
2018-10-19T23:46:02.268Z,11.83
2018-10-19T23:48:30.854Z,11.81
2018-10-19T23:50:59.371Z,11.79
2018-10-19T23:53:27.807Z,11.78
